createdAt,value
2018-08-10T00:01:51.339Z,97199.97
2018-08-10T00:04:19.658Z,97201.08
2018-08-10T00:06:47.950Z,97201.10
2018-08-10T00:09:16.290Z,97223.34
2018-08-10T00:11:44.632Z,97229.50
2018-08-10T00:14:12.986Z,97227.37
2018-08-10T00:16:41.546Z,97222.81
2018-08-10T00:19:09.879Z,97226.10
2018-08-10T00:21:38.183Z,97221.53
2018-08-10T00:24:06.523Z,97229.13
2018-08-10T00:26:34.866Z,97234.00
2018-08-10T00:29:03.218Z,97236.66
2018-08-10T00:31:31.870Z,97245.59
2018-08-10T00:34:00.191Z,97257.77
2018-08-10T00:36:28.511Z,97248.05
2018-08-10T00:38:56.827Z,97251.03
2018-08-10T00:41:25.170Z,97255.08
2018-08-10T00:43:53.518Z,97252.66
2018-08-10T00:46:21.867Z,97245.08
2018-08-10T00:48:50.204Z,97254.02
2018-08-10T00:51:18.566Z,97254.27
2018-08-10T00:53:47.026Z,97257.80
2018-08-10T00:56:15.343Z,97264.52
2018-08-10T00:58:43.630Z,97275.33
2018-08-10T01:01:11.955Z,97270.20
2018-08-10T01:03:40.254Z,97274.52
2018-08-10T01:06:08.574Z,97278.81
2018-08-10T01:08:36.898Z,97275.87
2018-08-10T01:11:05.211Z,97276.41
2018-08-10T01:13:33.562Z,97274.76
2018-08-10T01:16:01.882Z,97277.47
2018-08-10T01:18:30.214Z,97284.77
2018-08-10T01:20:58.581Z,97278.55
2018-08-10T01:23:26.911Z,97294.19
2018-08-10T01:25:55.603Z,97302.55
2018-08-10T01:28:23.997Z,97293.13
2018-08-10T01:30:52.280Z,97311.19
2018-08-10T01:33:20.597Z,97303.37
2018-08-10T01:35:49.526Z,97308.99
2018-08-10T01:38:17.871Z,97315.22
2018-08-10T01:40:46.194Z,97317.09
2018-08-10T01:43:14.506Z,97319.77
2018-08-10T01:45:42.853Z,97325.99
2018-08-10T01:48:11.151Z,97323.81
2018-08-10T01:50:39.479Z,97331.07
2018-08-10T01:53:07.776Z,97326.49
2018-08-10T01:55:36.078Z,97325.66
2018-08-10T01:58:04.445Z,97343.73
2018-08-10T02:00:32.746Z,97342.14
2018-08-10T02:03:01.083Z,97337.82
2018-08-10T02:05:29.410Z,97342.61
2018-08-10T02:07:57.735Z,97342.05
2018-08-10T02:10:26.098Z,97341.53
2018-08-10T02:12:56.408Z,97336.63
2018-08-10T02:15:24.803Z,97344.44
2018-08-10T02:17:53.463Z,97345.00
2018-08-10T02:20:23.339Z,97349.27
2018-08-10T02:22:51.770Z,97343.09
2018-08-10T02:25:22.015Z,97351.17
2018-08-10T02:27:51.018Z,97343.95
2018-08-10T02:30:20.603Z,97347.46
2018-08-10T02:32:49.583Z,97353.90
2018-08-10T02:35:17.914Z,97348.72
2018-08-10T02:37:46.258Z,97348.69
2018-08-10T02:40:16.668Z,97354.90
2018-08-10T02:42:46.298Z,97346.27
2018-08-10T02:45:14.943Z,97351.38
2018-08-10T02:47:43.287Z,97350.58
2018-08-10T02:50:11.647Z,97350.06
2018-08-10T02:52:39.959Z,97354.62
2018-08-10T02:55:09.211Z,97359.72
2018-08-10T02:57:38.311Z,97353.22
2018-08-10T03:00:12.279Z,97365.09
2018-08-10T03:02:41.280Z,97364.81
2018-08-10T03:05:10.132Z,97368.57
2018-08-10T03:07:38.718Z,97364.53
2018-08-10T03:10:07.747Z,97367.22
2018-08-10T03:12:36.417Z,97373.95
2018-08-10T03:15:06.698Z,97381.77
2018-08-10T03:17:35.026Z,97389.28
2018-08-10T03:20:03.381Z,97391.95
2018-08-10T03:22:31.731Z,97392.20
2018-08-10T03:25:00.534Z,97397.61
2018-08-10T03:27:28.894Z,97399.49
2018-08-10T03:29:57.185Z,97401.59
2018-08-10T03:32:25.514Z,97409.42
2018-08-10T03:34:53.798Z,97405.84
2018-08-10T03:37:22.138Z,97414.24
2018-08-10T03:39:50.438Z,97410.95
2018-08-10T03:42:18.746Z,97420.95
2018-08-10T03:44:47.059Z,97423.31
2018-08-10T03:47:15.383Z,97419.34
2018-08-10T03:49:43.736Z,97426.47
2018-08-10T03:52:12.174Z,97431.18
2018-08-10T03:54:40.667Z,97432.56
2018-08-10T03:57:08.979Z,97432.53
2018-08-10T03:59:37.291Z,97447.34
2018-08-10T04:02:06.262Z,97447.06
2018-08-10T04:04:34.558Z,97452.98
2018-08-10T04:07:02.887Z,97451.77
2018-08-10T04:09:31.206Z,97444.83
2018-08-10T04:11:59.511Z,97451.24
2018-08-10T04:14:27.798Z,97455.25
2018-08-10T04:16:56.118Z,97447.91
2018-08-10T04:19:24.407Z,97451.91
2018-08-10T04:21:52.726Z,97455.42
2018-08-10T04:24:21.037Z,97456.56
2018-08-10T04:26:49.350Z,97457.87
2018-08-10T04:29:17.634Z,97454.93
2018-08-10T04:31:46.227Z,97457.16
2018-08-10T04:34:14.634Z,97455.21
2018-08-10T04:36:42.974Z,97454.40
2018-08-10T04:39:13.072Z,97460.88
2018-08-10T04:41:41.627Z,97459.75
2018-08-10T04:44:09.955Z,97460.34
2018-08-10T04:46:38.546Z,97470.10
2018-08-10T04:49:07.046Z,97474.21
2018-08-10T04:51:35.392Z,97473.93
2018-08-10T04:54:03.706Z,97482.02
2018-08-10T04:56:32.014Z,97486.09
2018-08-10T04:59:00.309Z,97485.87
2018-08-10T05:01:28.631Z,97493.17
2018-08-10T05:03:56.959Z,97493.80
2018-08-10T05:06:25.517Z,97494.40
2018-08-10T05:08:53.853Z,97498.47
2018-08-10T05:11:22.134Z,97487.69
2018-08-10T05:13:50.463Z,97497.38
2018-08-10T05:16:18.791Z,97496.59
2018-08-10T05:18:47.127Z,97501.25
2018-08-10T05:21:15.422Z,97506.39
2018-08-10T05:23:43.965Z,97517.46
2018-08-10T05:26:12.299Z,97515.83
2018-08-10T05:28:40.619Z,97514.56
2018-08-10T05:31:08.903Z,97525.09
2018-08-10T05:33:38.202Z,97526.72
2018-08-10T05:36:06.506Z,97520.00
2018-08-10T05:38:34.850Z,97525.76
2018-08-10T05:41:03.166Z,97534.62
2018-08-10T05:43:31.490Z,97536.83
2018-08-10T05:45:59.814Z,97542.98
2018-08-10T05:48:30.859Z,97542.70
2018-08-10T05:50:59.234Z,97532.20
2018-08-10T05:53:33.450Z,97543.22
2018-08-10T05:56:01.730Z,97533.30
2018-08-10T05:58:30.195Z,97534.73
2018-08-10T06:00:58.503Z,97529.45
2018-08-10T06:03:27.528Z,97532.20
2018-08-10T06:05:56.027Z,97529.83
2018-08-10T06:08:24.892Z,97539.03
2018-08-10T06:10:53.235Z,97539.36
2018-08-10T06:13:21.556Z,97535.28
2018-08-10T06:15:50.186Z,97540.98
2018-08-10T06:18:18.516Z,97544.24
2018-08-10T06:20:46.811Z,97547.47
2018-08-10T06:23:15.116Z,97559.95
2018-08-10T06:25:43.683Z,97551.79
2018-08-10T06:28:12.032Z,97560.05
2018-08-10T06:30:40.338Z,97554.84
2018-08-10T06:33:08.930Z,97553.12
2018-08-10T06:35:37.223Z,97559.95
2018-08-10T06:38:05.902Z,97560.81
2018-08-10T06:40:34.179Z,97563.64
2018-08-10T06:43:02.478Z,97569.44
2018-08-10T06:45:30.763Z,97574.36
2018-08-10T06:47:59.083Z,97574.95
2018-08-10T06:50:27.403Z,97593.50
2018-08-10T06:52:55.730Z,97584.60
2018-08-10T06:55:24.608Z,97589.58
2018-08-10T06:57:52.911Z,97587.89
2018-08-10T07:00:21.249Z,97585.42
2018-08-10T07:02:49.531Z,97591.30
2018-08-10T07:05:18.302Z,97592.54
2018-08-10T07:07:46.644Z,97584.63
2018-08-10T07:10:14.933Z,97574.52
2018-08-10T07:12:43.243Z,97580.51
2018-08-10T07:15:11.555Z,97602.98
2018-08-10T07:17:39.877Z,97595.65
2018-08-10T07:20:08.634Z,97602.84
2018-08-10T07:22:37.251Z,97593.11
2018-08-10T07:25:06.071Z,97583.46
2018-08-10T07:27:34.511Z,97589.77
2018-08-10T07:30:03.082Z,97594.52
2018-08-10T07:32:31.487Z,97582.05
2018-08-10T07:34:59.808Z,97591.66
2018-08-10T07:37:28.144Z,97594.40
2018-08-10T07:39:56.428Z,97593.03
2018-08-10T07:42:24.744Z,97592.89
2018-08-10T07:44:53.077Z,97590.32
2018-08-10T07:47:21.390Z,97597.34
2018-08-10T07:49:49.667Z,97610.70
2018-08-10T07:52:17.963Z,97612.51
2018-08-10T07:54:46.287Z,97613.02
2018-08-10T07:57:14.603Z,97604.86
2018-08-10T07:59:42.902Z,97609.25
2018-08-10T08:02:11.233Z,97617.27
2018-08-10T08:04:39.563Z,97617.57
2018-08-10T08:07:08.012Z,97609.70
2018-08-10T08:09:36.222Z,97618.36
2018-08-10T08:12:04.568Z,97619.12
2018-08-10T08:14:33.299Z,97613.81
2018-08-10T08:17:02.074Z,97608.05
2018-08-10T08:19:30.450Z,97607.17
2018-08-10T08:22:09.521Z,97612.84
2018-08-10T08:24:38.527Z,97604.45
2018-08-10T08:27:07.092Z,97613.22
2018-08-10T08:29:35.950Z,97626.09
2018-08-10T08:32:04.490Z,97624.00
2018-08-10T08:34:32.901Z,97628.48
2018-08-10T08:37:01.898Z,97623.20
2018-08-10T08:40:36.759Z,97624.69
2018-08-10T08:43:05.112Z,97629.40
2018-08-10T08:45:44.246Z,97626.30
2018-08-10T08:48:12.546Z,97630.55
2018-08-10T08:50:42.255Z,97632.11
2018-08-10T08:53:10.659Z,97628.70
2018-08-10T08:55:58.944Z,97632.45
2018-08-10T08:58:27.598Z,97622.30
2018-08-10T09:00:55.926Z,97631.19
2018-08-10T09:03:35.950Z,97624.04
2018-08-10T09:06:04.698Z,97618.15
2018-08-10T09:08:33.018Z,97621.00
2018-08-10T09:11:02.642Z,97635.39
2018-08-10T09:15:40.611Z,97620.53
2018-08-10T09:18:08.976Z,97624.22
2018-08-10T09:20:37.291Z,97627.78
2018-08-10T09:23:06.072Z,97625.08
2018-08-10T09:25:34.442Z,97622.45
2018-08-10T09:28:02.759Z,97623.95
2018-08-10T09:30:31.063Z,97620.90
2018-08-10T09:32:59.481Z,97634.69
2018-08-10T09:35:27.831Z,97638.36
2018-08-10T09:37:56.163Z,97649.06
2018-08-10T09:40:24.479Z,97634.70
2018-08-10T09:42:52.742Z,97634.67
2018-08-10T09:45:21.412Z,97641.91
2018-08-10T09:47:50.475Z,97622.55
2018-08-10T09:50:19.382Z,97638.92
2018-08-10T09:52:57.298Z,97637.78
2018-08-10T09:55:28.627Z,97641.55
2018-08-10T09:57:59.230Z,97638.41
2018-08-10T10:00:32.883Z,97645.32
2018-08-10T10:03:36.562Z,97642.81
2018-08-10T10:06:04.876Z,97626.11
2018-08-10T10:08:33.187Z,97635.29
2018-08-10T10:11:01.506Z,97623.63
2018-08-10T10:13:29.948Z,97630.50
2018-08-10T10:15:58.287Z,97631.58
2018-08-10T10:18:26.612Z,97614.30
2018-08-10T10:20:54.930Z,97626.39
2018-08-10T10:23:23.283Z,97612.06
2018-08-10T10:25:51.630Z,97619.78
2018-08-10T10:28:19.962Z,97620.11
2018-08-10T10:30:48.294Z,97611.12
2018-08-10T10:33:16.587Z,97619.07
2018-08-10T10:35:44.899Z,97617.82
2018-08-10T10:38:13.198Z,97619.81
2018-08-10T10:40:41.527Z,97610.30
2018-08-10T10:43:09.835Z,97611.18
2018-08-10T10:45:38.174Z,97608.89
2018-08-10T10:48:06.966Z,97600.22
2018-08-10T10:50:35.302Z,97608.12
2018-08-10T10:53:03.634Z,97616.14
2018-08-10T10:55:32.014Z,97604.65
2018-08-10T10:58:00.267Z,97595.22
2018-08-10T11:00:28.800Z,97596.50
2018-08-10T11:02:57.172Z,97599.00
2018-08-10T11:05:25.470Z,97595.08
2018-08-10T11:07:53.774Z,97590.22
2018-08-10T11:10:22.136Z,97580.16
2018-08-10T11:12:50.410Z,97590.56
2018-08-10T11:15:18.773Z,97600.87
2018-08-10T11:17:47.083Z,97597.93
2018-08-10T11:20:15.395Z,97587.38
2018-08-10T11:22:43.706Z,97588.03
2018-08-10T11:25:13.346Z,97585.89
2018-08-10T11:27:42.370Z,97590.17
2018-08-10T11:30:11.312Z,97581.09
2018-08-10T11:32:39.622Z,97591.55
2018-08-10T11:35:08.548Z,97597.41
2018-08-10T11:37:37.060Z,97590.78
2018-08-10T11:40:08.619Z,97580.50
2018-08-10T11:42:36.951Z,97588.25
2018-08-10T11:45:07.336Z,97568.86
2018-08-10T11:47:35.647Z,97575.98
2018-08-10T11:50:04.124Z,97575.64
2018-08-10T11:52:32.432Z,97593.24
2018-08-10T11:55:00.863Z,97573.30
2018-08-10T11:57:30.122Z,97592.79
2018-08-10T11:59:58.482Z,97573.81
2018-08-10T12:02:26.779Z,97570.81
2018-08-10T12:04:55.091Z,97577.95
2018-08-10T12:07:24.402Z,97584.17
2018-08-10T12:10:27.336Z,97584.56
2018-08-10T12:12:55.733Z,97576.47
2018-08-10T12:15:24.513Z,97580.50
2018-08-10T12:17:52.842Z,97594.11
2018-08-10T12:20:21.639Z,97589.03
2018-08-10T12:22:49.963Z,97575.32
2018-08-10T12:25:18.277Z,97572.02
2018-08-10T12:27:46.583Z,97571.91
2018-08-10T12:30:14.983Z,97577.43
2018-08-10T12:32:43.243Z,97580.50
2018-08-10T12:35:12.052Z,97578.88
2018-08-10T12:37:40.390Z,97578.91
2018-08-10T12:40:08.907Z,97574.11
2018-08-10T12:42:37.479Z,97570.28
2018-08-10T12:45:06.257Z,97576.87
2018-08-10T12:47:34.567Z,97583.89
2018-08-10T12:50:02.884Z,97577.07
2018-08-10T12:52:31.199Z,97574.08
2018-08-10T12:54:59.531Z,97574.78
2018-08-10T12:57:27.893Z,97591.08
2018-08-10T12:59:56.242Z,97580.10
2018-08-10T13:02:24.571Z,97582.72
2018-08-10T13:04:52.894Z,97574.49
2018-08-10T13:07:21.202Z,97569.06
2018-08-10T13:09:49.519Z,97566.61
2018-08-10T13:12:17.822Z,97577.02
2018-08-10T13:14:46.146Z,97575.95
2018-08-10T13:17:14.622Z,97575.48
2018-08-10T13:19:42.959Z,97583.39
2018-08-10T13:22:11.306Z,97573.50
2018-08-10T13:24:39.603Z,97564.06
2018-08-10T13:27:07.934Z,97561.00
2018-08-10T13:29:36.218Z,97569.86
2018-08-10T13:32:04.601Z,97557.40
2018-08-10T13:34:32.935Z,97556.89
2018-08-10T13:37:01.264Z,97548.72
2018-08-10T13:39:29.566Z,97559.30
2018-08-10T13:41:57.907Z,97561.34
2018-08-10T13:44:26.202Z,97565.80
2018-08-10T13:46:54.540Z,97557.47
2018-08-10T13:49:22.845Z,97547.31
2018-08-10T13:51:51.175Z,97544.47
2018-08-10T13:54:19.457Z,97543.73
2018-08-10T13:56:47.809Z,97548.97
2018-08-10T13:59:16.214Z,97542.68
2018-08-10T14:01:44.546Z,97539.69
2018-08-10T14:04:12.843Z,97543.55
2018-08-10T14:06:41.189Z,97547.50
2018-08-10T14:09:10.654Z,97538.30
2018-08-10T14:11:39.018Z,97533.90
2018-08-10T14:14:07.458Z,97533.05
2018-08-10T14:16:36.023Z,97523.04
2018-08-10T14:19:04.398Z,97526.72
2018-08-10T14:21:32.918Z,97525.39
2018-08-10T14:24:01.370Z,97526.19
2018-08-10T14:26:29.718Z,97529.14
2018-08-10T14:28:58.054Z,97523.63
2018-08-10T14:31:26.361Z,97523.86
2018-08-10T14:33:54.698Z,97525.27
2018-08-10T14:36:23.050Z,97517.80
2018-08-10T14:38:51.412Z,97521.90
2018-08-10T14:41:19.859Z,97507.67
2018-08-10T14:43:48.141Z,97521.36
2018-08-10T14:46:16.454Z,97514.91
2018-08-10T14:48:44.899Z,97515.03
2018-08-10T14:51:13.253Z,97510.02
2018-08-10T14:53:41.678Z,97512.72
2018-08-10T14:56:10.217Z,97508.48
2018-08-10T14:58:38.534Z,97514.89
2018-08-10T15:01:07.088Z,97506.16
2018-08-10T15:03:35.319Z,97503.18
2018-08-10T15:06:03.674Z,97497.73
2018-08-10T15:08:32.027Z,97494.73
2018-08-10T15:11:00.347Z,97506.81
2018-08-10T15:13:28.670Z,97494.72
2018-08-10T15:15:56.990Z,97497.52
2018-08-10T15:18:25.330Z,97487.68
2018-08-10T15:20:53.674Z,97491.59
2018-08-10T15:23:21.999Z,97486.86
2018-08-10T15:25:50.299Z,97489.86
2018-08-10T15:28:18.679Z,97484.88
2018-08-10T15:30:47.006Z,97488.28
2018-08-10T15:33:15.362Z,97489.30
2018-08-10T15:35:43.665Z,97479.63
2018-08-10T15:38:12.029Z,97484.17
2018-08-10T15:40:40.372Z,97479.47
2018-08-10T15:43:08.779Z,97471.78
2018-08-10T15:45:37.093Z,97476.63
2018-08-10T15:48:05.596Z,97472.81
2018-08-10T15:50:34.228Z,97495.63
2018-08-10T15:53:02.943Z,97491.34
2018-08-10T15:55:31.284Z,97484.11
2018-08-10T15:57:59.611Z,97482.77
2018-08-10T16:00:27.946Z,97483.27
2018-08-10T16:02:56.256Z,97484.66
2018-08-10T16:05:24.628Z,97479.77
2018-08-10T16:07:52.947Z,97465.49
2018-08-10T16:10:21.265Z,97468.27
2018-08-10T16:12:49.634Z,97464.09
2018-08-10T16:15:18.838Z,97460.55
2018-08-10T16:17:47.942Z,97461.23
2018-08-10T16:20:20.770Z,97457.88
2018-08-10T16:22:49.321Z,97462.03
2018-08-10T16:25:17.633Z,97457.23
2018-08-10T16:27:46.107Z,97463.33
2018-08-10T16:30:15.371Z,97473.75
2018-08-10T16:32:44.535Z,97473.09
2018-08-10T16:35:13.794Z,97465.75
2018-08-10T16:37:43.262Z,97477.00
2018-08-10T16:40:13.015Z,97470.41
2018-08-10T16:42:42.003Z,97478.32
2018-08-10T16:45:10.932Z,97477.00
2018-08-10T16:47:39.777Z,97478.42
2018-08-10T16:50:11.076Z,97469.90
2018-08-10T16:52:41.234Z,97473.36
2018-08-10T16:55:11.479Z,97470.55
2018-08-10T16:57:40.451Z,97468.13
2018-08-10T17:00:09.816Z,97463.53
2018-08-10T17:02:38.442Z,97468.59
2018-08-10T17:05:07.648Z,97461.88
2018-08-10T17:07:36.647Z,97460.08
2018-08-10T17:10:06.131Z,97460.34
2018-08-10T17:12:34.531Z,97460.53
2018-08-10T17:15:02.837Z,97465.34
2018-08-10T17:17:31.167Z,97467.75
2018-08-10T17:19:59.459Z,97473.00
2018-08-10T17:22:27.758Z,97469.11
2018-08-10T17:24:56.062Z,97463.39
2018-08-10T17:27:24.403Z,97464.94
2018-08-10T17:29:52.735Z,97459.12
2018-08-10T17:32:21.090Z,97458.69
2018-08-10T17:34:49.370Z,97463.55
2018-08-10T17:37:17.715Z,97455.95
2018-08-10T17:39:46.035Z,97459.74
2018-08-10T17:42:14.354Z,97455.83
2018-08-10T17:44:42.694Z,97461.48
2018-08-10T17:47:11.047Z,97459.14
2018-08-10T17:49:39.652Z,97462.18
2018-08-10T17:52:08.035Z,97461.73
2018-08-10T17:54:36.387Z,97460.06
2018-08-10T17:57:04.766Z,97464.95
2018-08-10T17:59:33.140Z,97468.58
2018-08-10T18:02:01.451Z,97457.28
2018-08-10T18:04:29.842Z,97463.78
2018-08-10T18:06:58.191Z,97467.66
2018-08-10T18:09:26.546Z,97465.40
2018-08-10T18:11:54.874Z,97465.44
2018-08-10T18:14:23.238Z,97477.59
2018-08-10T18:16:51.550Z,97475.17
2018-08-10T18:19:20.215Z,97473.69
2018-08-10T18:21:48.564Z,97477.69
2018-08-10T18:24:16.938Z,97471.77
2018-08-10T18:26:45.246Z,97469.63
2018-08-10T18:29:15.622Z,97473.73
2018-08-10T18:31:43.922Z,97471.73
2018-08-10T18:34:12.279Z,97475.75
2018-08-10T18:36:40.558Z,97471.31
2018-08-10T18:39:11.574Z,97473.45
2018-08-10T18:41:40.305Z,97478.20
2018-08-10T18:44:09.085Z,97492.72
2018-08-10T18:46:38.047Z,97491.02
2018-08-10T18:49:06.742Z,97478.16
2018-08-10T18:51:35.226Z,97489.41
2018-08-10T18:54:04.023Z,97489.17
2018-08-10T18:56:32.362Z,97490.94
2018-08-10T18:59:01.083Z,97495.06
2018-08-10T19:01:29.419Z,97495.23
2018-08-10T19:03:57.790Z,97493.91
2018-08-10T19:06:26.099Z,97493.75
2018-08-10T19:08:54.470Z,97493.55
2018-08-10T19:11:22.835Z,97497.55
2018-08-10T19:13:51.182Z,97497.03
2018-08-10T19:16:19.518Z,97489.47
2018-08-10T19:18:47.842Z,97496.67
2018-08-10T19:21:16.187Z,97496.31
2018-08-10T19:23:44.522Z,97502.14
2018-08-10T19:26:12.835Z,97501.84
2018-08-10T19:28:41.186Z,97502.12
2018-08-10T19:31:09.592Z,97507.94
2018-08-10T19:33:37.926Z,97505.05
2018-08-10T19:36:06.387Z,97503.73
2018-08-10T19:38:34.747Z,97505.30
2018-08-10T19:41:03.524Z,97507.52
2018-08-10T19:43:31.871Z,97506.33
2018-08-10T19:46:00.226Z,97505.54
2018-08-10T19:48:28.568Z,97509.75
2018-08-10T19:50:56.943Z,97516.70
2018-08-10T19:53:25.627Z,97514.13
2018-08-10T19:55:54.038Z,97506.88
2018-08-10T19:58:22.340Z,97502.45
2018-08-10T20:00:50.702Z,97504.30
2018-08-10T20:03:19.043Z,97504.37
2018-08-10T20:05:47.367Z,97504.44
2018-08-10T20:08:15.704Z,97503.67
2018-08-10T20:10:44.071Z,97504.04
2018-08-10T20:13:12.383Z,97502.52
2018-08-10T20:15:40.802Z,97501.26
2018-08-10T20:18:09.034Z,97500.71
2018-08-10T20:20:37.362Z,97502.69
2018-08-10T20:23:06.158Z,97504.09
2018-08-10T20:25:34.499Z,97506.66
2018-08-10T20:28:02.871Z,97516.02
2018-08-10T20:30:31.186Z,97509.73
2018-08-10T20:32:59.506Z,97512.17
2018-08-10T20:35:27.866Z,97509.61
2018-08-10T20:37:56.203Z,97506.85
2018-08-10T20:40:25.035Z,97498.22
2018-08-10T20:42:53.374Z,97499.47
2018-08-10T20:45:21.947Z,97494.72
2018-08-10T20:47:50.238Z,97507.06
2018-08-10T20:50:21.688Z,97500.66
2018-08-10T20:52:50.059Z,97505.34
2018-08-10T20:55:19.022Z,97500.81
2018-08-10T20:57:48.319Z,97504.41
2018-08-10T21:00:16.686Z,97512.60
2018-08-10T21:02:45.709Z,97509.69
2018-08-10T21:05:14.703Z,97514.38
2018-08-10T21:07:43.998Z,97505.83
2018-08-10T21:10:14.377Z,97514.03
2018-08-10T21:12:43.610Z,97514.02
2018-08-10T21:15:13.230Z,97507.77
2018-08-10T21:17:42.610Z,97505.83
2018-08-10T21:20:14.554Z,97509.66
2018-08-10T21:22:42.995Z,97503.67
2018-08-10T21:25:12.091Z,97505.36
2018-08-10T21:27:41.143Z,97505.63
2018-08-10T21:30:14.170Z,97498.63
2018-08-10T21:32:42.544Z,97505.37
2018-08-10T21:35:11.054Z,97500.25
2018-08-10T21:37:39.401Z,97504.62
2018-08-10T21:40:08.658Z,97500.58
2018-08-10T21:42:37.022Z,97501.11
2018-08-10T21:45:06.458Z,97502.19
2018-08-10T21:47:34.866Z,97501.92
2018-08-10T21:50:03.259Z,97500.81
2018-08-10T21:52:31.566Z,97498.94
2018-08-10T21:54:59.897Z,97497.00
2018-08-10T21:57:28.267Z,97502.88
2018-08-10T21:59:56.726Z,97501.02
2018-08-10T22:02:26.034Z,97496.98
2018-08-10T22:04:54.987Z,97498.03
2018-08-10T22:07:23.416Z,97496.42
2018-08-10T22:09:51.740Z,97493.97
2018-08-10T22:12:20.594Z,97501.28
2018-08-10T22:14:54.398Z,97501.80
2018-08-10T22:17:28.032Z,97497.97
2018-08-10T22:19:59.757Z,97500.41
2018-08-10T22:22:29.780Z,97505.55
2018-08-10T22:24:58.147Z,97501.17
2018-08-10T22:27:26.729Z,97503.08
2018-08-10T22:29:55.051Z,97503.05
2018-08-10T22:32:23.464Z,97497.37
2018-08-10T22:34:51.790Z,97495.77
2018-08-10T22:37:20.587Z,97495.00
2018-08-10T22:39:48.974Z,97499.38
2018-08-10T22:42:17.319Z,97493.21
2018-08-10T22:44:46.454Z,97496.77
2018-08-10T22:47:14.811Z,97494.28
2018-08-10T22:49:43.187Z,97490.30
2018-08-10T22:52:11.486Z,97492.72
2018-08-10T22:54:39.848Z,97488.13
2018-08-10T22:57:08.194Z,97487.05
2018-08-10T22:59:36.939Z,97487.34
2018-08-10T23:02:05.311Z,97484.63
2018-08-10T23:04:33.647Z,97487.34
2018-08-10T23:07:02.018Z,97487.88
2018-08-10T23:09:30.378Z,97485.70
2018-08-10T23:11:58.742Z,97490.05
2018-08-10T23:14:27.145Z,97488.41
2018-08-10T23:16:55.747Z,97482.73
2018-08-10T23:19:24.903Z,97486.22
2018-08-10T23:21:53.267Z,97485.13
2018-08-10T23:24:21.610Z,97483.47
2018-08-10T23:26:49.966Z,97483.17
2018-08-10T23:29:18.291Z,97477.75
2018-08-10T23:31:46.659Z,97475.63
2018-08-10T23:34:14.990Z,97471.53
2018-08-10T23:36:43.342Z,97471.31
2018-08-10T23:39:12.603Z,97470.19
2018-08-10T23:41:41.414Z,97461.53
2018-08-10T23:44:09.794Z,97462.05
2018-08-10T23:46:38.178Z,97459.06
2018-08-10T23:49:06.854Z,97460.34
2018-08-10T23:51:35.342Z,97461.27
2018-08-10T23:54:03.758Z,97458.25
2018-08-10T23:56:32.102Z,97462.02
2018-08-10T23:59:00.663Z,97458.68
